Terminal Aerodrome Forecast
Issued by NWS Dallas/Fort Worth, TX

Home | Current Version | Previous Version | Text Only | Print | Product List | Glossary On
Versions: 1 2 3 4 5 6 7 8 9 10 11 12 13 14 15 16 17 18 19 20 21 22 23 24 25 26 27
000
FTUS44 KFWD 011700
TAFACT
TAF
KACT 011728Z 0118/0218 17011KT P6SM SCT040
     FM020800 17010KT P6SM OVC012
     FM021500 18017KT P6SM BKN022=

USA.gov is the U.S. government's official web portal to all federal, state and local government web resources and services.